sensor_id;sensor_type;location;lat;lon;timestamp;P1;durP1;ratioP1;P2;durP2;ratioP2
1467;SDS011;727;48.892;9.544;2024-03-02T00:00:26;21.33;;;16.38;;
1467;SDS011;727;48.892;9.544;2024-03-02T00:02:52;22.90;;;16.45;;
1467;SDS011;727;48.892;9.544;2024-03-02T00:05:19;31.98;;;17.92;;
1467;SDS011;727;48.892;9.544;2024-03-02T00:07:53;25.63;;;16.98;;
1467;SDS011;727;48.892;9.544;2024-03-02T00:10:22;21.90;;;15.38;;
1467;SDS011;727;48.892;9.544;2024-03-02T00:12:54;25.92;;;17.90;;
1467;SDS011;727;48.892;9.544;2024-03-02T00:15:28;24.15;;;18.10;;
1467;SDS011;727;48.892;9.544;2024-03-02T00:18:06;19.60;;;15.02;;
1467;SDS011;727;48.892;9.544;2024-03-02T00:20:34;22.08;;;17.42;;
1467;SDS011;727;48.892;9.544;2024-03-02T00:23:03;23.33;;;16.30;;
1467;SDS011;727;48.892;9.544;2024-03-02T00:25:35;24.45;;;16.92;;
1467;SDS011;727;48.892;9.544;2024-03-02T00:28:04;21.63;;;16.67;;
1467;SDS011;727;48.892;9.544;2024-03-02T00:30:39;23.38;;;17.05;;
1467;SDS011;727;48.892;9.544;2024-03-02T00:33:18;20.30;;;16.40;;
1467;SDS011;727;48.892;9.544;2024-03-02T00:35:45;25.85;;;16.27;;
1467;SDS011;727;48.892;9.544;2024-03-02T00:38:13;21.45;;;14.98;;
1467;SDS011;727;48.892;9.544;2024-03-02T00:40:40;23.27;;;18.23;;
1467;SDS011;727;48.892;9.544;2024-03-02T00:43:09;26.67;;;18.15;;
1467;SDS011;727;48.892;9.544;2024-03-02T00:45:50;25.80;;;18.60;;
1467;SDS011;727;48.892;9.544;2024-03-02T00:48:17;28.65;;;18.13;;
1467;SDS011;727;48.892;9.544;2024-03-02T00:50:44;25.48;;;16.75;;
1467;SDS011;727;48.892;9.544;2024-03-02T00:53:11;24.35;;;17.50;;
1467;SDS011;727;48.892;9.544;2024-03-02T00:55:40;26.20;;;17.60;;
1467;SDS011;727;48.892;9.544;2024-03-02T00:58:09;22.00;;;15.63;;
1467;SDS011;727;48.892;9.544;2024-03-02T01:00:35;28.65;;;17.25;;
1467;SDS011;727;48.892;9.544;2024-03-02T01:03:02;30.88;;;18.17;;
1467;SDS011;727;48.892;9.544;2024-03-02T01:05:30;21.38;;;16.70;;
1467;SDS011;727;48.892;9.544;2024-03-02T01:07:56;24.98;;;17.45;;
1467;SDS011;727;48.892;9.544;2024-03-02T01:10:24;25.00;;;16.83;;
1467;SDS011;727;48.892;9.544;2024-03-02T01:12:51;23.55;;;16.50;;
1467;SDS011;727;48.892;9.544;2024-03-02T01:15:18;24.50;;;17.13;;
1467;SDS011;727;48.892;9.544;2024-03-02T01:17:45;26.70;;;17.27;;
1467;SDS011;727;48.892;9.544;2024-03-02T01:20:12;24.67;;;18.08;;
1467;SDS011;727;48.892;9.544;2024-03-02T01:22:39;24.95;;;17.73;;
1467;SDS011;727;48.892;9.544;2024-03-02T01:25:06;29.55;;;18.88;;
1467;SDS011;727;48.892;9.544;2024-03-02T01:27:35;25.20;;;17.80;;
1467;SDS011;727;48.892;9.544;2024-03-02T01:30:02;26.05;;;17.73;;
1467;SDS011;727;48.892;9.544;2024-03-02T01:32:29;23.92;;;17.40;;
1467;SDS011;727;48.892;9.544;2024-03-02T01:34:55;24.02;;;17.00;;
1467;SDS011;727;48.892;9.544;2024-03-02T01:37:22;22.40;;;16.02;;
1467;SDS011;727;48.892;9.544;2024-03-02T01:39:49;28.58;;;16.83;;
1467;SDS011;727;48.892;9.544;2024-03-02T01:42:15;23.80;;;17.02;;
1467;SDS011;727;48.892;9.544;2024-03-02T01:44:43;28.00;;;17.42;;
1467;SDS011;727;48.892;9.544;2024-03-02T01:47:10;22.65;;;17.30;;
1467;SDS011;727;48.892;9.544;2024-03-02T01:49:37;25.80;;;18.70;;
1467;SDS011;727;48.892;9.544;2024-03-02T01:52:06;29.10;;;17.42;;
1467;SDS011;727;48.892;9.544;2024-03-02T01:54:32;22.48;;;16.27;;
1467;SDS011;727;48.892;9.544;2024-03-02T01:56:59;23.60;;;16.63;;
1467;SDS011;727;48.892;9.544;2024-03-02T01:59:26;24.58;;;17.38;;
1467;SDS011;727;48.892;9.544;2024-03-02T02:01:54;28.02;;;17.40;;
1467;SDS011;727;48.892;9.544;2024-03-02T02:04:21;26.25;;;17.60;;
1467;SDS011;727;48.892;9.544;2024-03-02T02:06:52;23.35;;;16.27;;
1467;SDS011;727;48.892;9.544;2024-03-02T02:09:18;22.90;;;18.30;;
1467;SDS011;727;48.892;9.544;2024-03-02T02:11:45;26.10;;;17.77;;
1467;SDS011;727;48.892;9.544;2024-03-02T02:14:12;24.05;;;17.73;;
1467;SDS011;727;48.892;9.544;2024-03-02T02:16:38;27.80;;;18.05;;
1467;SDS011;727;48.892;9.544;2024-03-02T02:19:06;22.30;;;16.48;;
1467;SDS011;727;48.892;9.544;2024-03-02T02:21:35;24.48;;;15.50;;
1467;SDS011;727;48.892;9.544;2024-03-02T02:24:02;22.92;;;14.05;;
1467;SDS011;727;48.892;9.544;2024-03-02T02:26:29;27.20;;;15.95;;
1467;SDS011;727;48.892;9.544;2024-03-02T02:28:56;23.35;;;16.10;;
1467;SDS011;727;48.892;9.544;2024-03-02T02:31:22;22.02;;;13.90;;
1467;SDS011;727;48.892;9.544;2024-03-02T02:33:49;21.92;;;15.15;;
1467;SDS011;727;48.892;9.544;2024-03-02T02:36:16;23.65;;;16.92;;
1467;SDS011;727;48.892;9.544;2024-03-02T02:38:44;22.27;;;15.05;;
1467;SDS011;727;48.892;9.544;2024-03-02T02:41:14;23.77;;;15.40;;
1467;SDS011;727;48.892;9.544;2024-03-02T02:43:40;20.70;;;15.23;;
1467;SDS011;727;48.892;9.544;2024-03-02T02:46:07;25.70;;;16.88;;
1467;SDS011;727;48.892;9.544;2024-03-02T02:48:33;26.95;;;18.38;;
1467;SDS011;727;48.892;9.544;2024-03-02T02:51:01;26.63;;;18.88;;
1467;SDS011;727;48.892;9.544;2024-03-02T02:53:27;27.67;;;17.70;;
1467;SDS011;727;48.892;9.544;2024-03-02T02:55:55;26.13;;;17.20;;
1467;SDS011;727;48.892;9.544;2024-03-02T02:58:22;30.45;;;18.90;;
1467;SDS011;727;48.892;9.544;2024-03-02T03:00:49;28.73;;;18.25;;
1467;SDS011;727;48.892;9.544;2024-03-02T03:03:15;27.55;;;17.38;;
1467;SDS011;727;48.892;9.544;2024-03-02T03:05:42;26.50;;;17.50;;
1467;SDS011;727;48.892;9.544;2024-03-02T03:08:09;31.98;;;18.52;;
1467;SDS011;727;48.892;9.544;2024-03-02T03:10:35;38.17;;;23.02;;
1467;SDS011;727;48.892;9.544;2024-03-02T03:13:03;31.27;;;21.13;;
1467;SDS011;727;48.892;9.544;2024-03-02T03:15:33;28.20;;;18.13;;
1467;SDS011;727;48.892;9.544;2024-03-02T03:18:01;32.03;;;18.90;;
1467;SDS011;727;48.892;9.544;2024-03-02T03:20:28;29.85;;;17.77;;
1467;SDS011;727;48.892;9.544;2024-03-02T03:22:55;23.80;;;17.27;;
1467;SDS011;727;48.892;9.544;2024-03-02T03:25:22;28.92;;;18.98;;
1467;SDS011;727;48.892;9.544;2024-03-02T03:27:49;24.67;;;16.70;;
1467;SDS011;727;48.892;9.544;2024-03-02T03:30:18;24.17;;;15.40;;
1467;SDS011;727;48.892;9.544;2024-03-02T03:32:45;25.13;;;18.40;;
1467;SDS011;727;48.892;9.544;2024-03-02T03:35:13;31.70;;;18.77;;
1467;SDS011;727;48.892;9.544;2024-03-02T03:37:40;26.00;;;17.45;;
1467;SDS011;727;48.892;9.544;2024-03-02T03:40:07;27.02;;;16.58;;
1467;SDS011;727;48.892;9.544;2024-03-02T03:42:35;21.08;;;13.63;;
1467;SDS011;727;48.892;9.544;2024-03-02T03:45:02;26.02;;;17.33;;
1467;SDS011;727;48.892;9.544;2024-03-02T03:47:32;25.10;;;15.10;;
1467;SDS011;727;48.892;9.544;2024-03-02T03:49:58;28.25;;;17.15;;
1467;SDS011;727;48.892;9.544;2024-03-02T03:52:25;26.88;;;15.85;;
1467;SDS011;727;48.892;9.544;2024-03-02T03:54:52;21.67;;;16.10;;
1467;SDS011;727;48.892;9.544;2024-03-02T03:57:18;23.77;;;15.18;;
1467;SDS011;727;48.892;9.544;2024-03-02T03:59:45;24.77;;;16.88;;
1467;SDS011;727;48.892;9.544;2024-03-02T04:02:12;29.00;;;18.65;;
1467;SDS011;727;48.892;9.544;2024-03-02T04:04:40;34.08;;;17.52;;
1467;SDS011;727;48.892;9.544;2024-03-02T04:07:07;31.63;;;18.02;;
1467;SDS011;727;48.892;9.544;2024-03-02T04:09:33;31.90;;;17.55;;
1467;SDS011;727;48.892;9.544;2024-03-02T04:12:00;32.75;;;18.45;;
1467;SDS011;727;48.892;9.544;2024-03-02T04:14:27;30.85;;;18.05;;
1467;SDS011;727;48.892;9.544;2024-03-02T04:16:53;30.63;;;17.63;;
1467;SDS011;727;48.892;9.544;2024-03-02T04:19:20;26.88;;;18.73;;
1467;SDS011;727;48.892;9.544;2024-03-02T04:21:48;25.33;;;16.80;;
1467;SDS011;727;48.892;9.544;2024-03-02T04:24:15;30.00;;;17.92;;
1467;SDS011;727;48.892;9.544;2024-03-02T04:26:41;30.73;;;18.77;;
1467;SDS011;727;48.892;9.544;2024-03-02T04:29:08;25.00;;;17.30;;
1467;SDS011;727;48.892;9.544;2024-03-02T04:31:35;25.58;;;16.92;;
1467;SDS011;727;48.892;9.544;2024-03-02T04:34:01;24.80;;;18.15;;
1467;SDS011;727;48.892;9.544;2024-03-02T04:36:28;33.10;;;20.02;;
1467;SDS011;727;48.892;9.544;2024-03-02T04:38:56;29.70;;;19.15;;
1467;SDS011;727;48.892;9.544;2024-03-02T04:41:22;27.70;;;17.70;;
1467;SDS011;727;48.892;9.544;2024-03-02T04:43:49;27.55;;;17.45;;
1467;SDS011;727;48.892;9.544;2024-03-02T04:46:16;32.67;;;19.17;;
1467;SDS011;727;48.892;9.544;2024-03-02T04:48:42;33.33;;;19.60;;
1467;SDS011;727;48.892;9.544;2024-03-02T04:51:09;29.80;;;19.38;;
1467;SDS011;727;48.892;9.544;2024-03-02T04:53:36;31.38;;;19.70;;
1467;SDS011;727;48.892;9.544;2024-03-02T04:56:05;28.52;;;18.08;;
1467;SDS011;727;48.892;9.544;2024-03-02T04:59:04;26.17;;;16.77;;
1467;SDS011;727;48.892;9.544;2024-03-02T05:01:31;31.67;;;19.40;;
1467;SDS011;727;48.892;9.544;2024-03-02T05:03:58;33.67;;;19.10;;
1467;SDS011;727;48.892;9.544;2024-03-02T05:06:24;28.10;;;17.00;;
1467;SDS011;727;48.892;9.544;2024-03-02T05:08:51;25.20;;;17.15;;
1467;SDS011;727;48.892;9.544;2024-03-02T05:11:19;24.88;;;15.73;;
1467;SDS011;727;48.892;9.544;2024-03-02T05:14:09;27.55;;;16.05;;
1467;SDS011;727;48.892;9.544;2024-03-02T05:16:36;29.65;;;19.60;;
1467;SDS011;727;48.892;9.544;2024-03-02T05:19:03;38.75;;;20.75;;
1467;SDS011;727;48.892;9.544;2024-03-02T05:21:31;32.28;;;20.75;;
1467;SDS011;727;48.892;9.544;2024-03-02T05:23:58;49.22;;;19.88;;
1467;SDS011;727;48.892;9.544;2024-03-02T05:26:26;41.33;;;24.30;;
1467;SDS011;727;48.892;9.544;2024-03-02T05:28:53;32.47;;;21.58;;
1467;SDS011;727;48.892;9.544;2024-03-02T05:31:19;35.25;;;21.23;;
1467;SDS011;727;48.892;9.544;2024-03-02T05:33:46;33.15;;;19.30;;
1467;SDS011;727;48.892;9.544;2024-03-02T05:36:12;28.58;;;19.00;;
1467;SDS011;727;48.892;9.544;2024-03-02T05:38:39;39.05;;;21.65;;
1467;SDS011;727;48.892;9.544;2024-03-02T05:41:06;32.63;;;18.42;;
1467;SDS011;727;48.892;9.544;2024-03-02T05:43:33;33.65;;;20.23;;
1467;SDS011;727;48.892;9.544;2024-03-02T05:46:01;29.00;;;18.40;;
1467;SDS011;727;48.892;9.544;2024-03-02T05:48:28;28.98;;;19.75;;
1467;SDS011;727;48.892;9.544;2024-03-02T05:50:54;34.30;;;19.08;;
1467;SDS011;727;48.892;9.544;2024-03-02T05:53:21;31.63;;;20.80;;
1467;SDS011;727;48.892;9.544;2024-03-02T05:55:48;36.08;;;21.25;;
1467;SDS011;727;48.892;9.544;2024-03-02T05:58:18;37.92;;;25.52;;
1467;SDS011;727;48.892;9.544;2024-03-02T06:00:57;33.42;;;22.90;;
1467;SDS011;727;48.892;9.544;2024-03-02T06:03:24;30.73;;;19.08;;
1467;SDS011;727;48.892;9.544;2024-03-02T06:05:51;31.80;;;19.08;;
1467;SDS011;727;48.892;9.544;2024-03-02T06:08:17;30.58;;;19.05;;
1467;SDS011;727;48.892;9.544;2024-03-02T06:10:44;34.40;;;19.40;;
1467;SDS011;727;48.892;9.544;2024-03-02T06:13:11;33.80;;;19.95;;
1467;SDS011;727;48.892;9.544;2024-03-02T06:15:37;31.35;;;20.70;;
1467;SDS011;727;48.892;9.544;2024-03-02T06:18:05;27.20;;;20.02;;
1467;SDS011;727;48.892;9.544;2024-03-02T06:20:32;29.38;;;20.50;;
1467;SDS011;727;48.892;9.544;2024-03-02T06:22:59;28.58;;;20.83;;
1467;SDS011;727;48.892;9.544;2024-03-02T06:25:26;29.52;;;20.63;;
1467;SDS011;727;48.892;9.544;2024-03-02T06:27:53;31.75;;;20.40;;
1467;SDS011;727;48.892;9.544;2024-03-02T06:30:19;28.33;;;17.75;;
1467;SDS011;727;48.892;9.544;2024-03-02T06:32:46;32.53;;;17.52;;
1467;SDS011;727;48.892;9.544;2024-03-02T06:35:14;36.72;;;27.45;;
1467;SDS011;727;48.892;9.544;2024-03-02T06:37:41;42.47;;;27.13;;
1467;SDS011;727;48.892;9.544;2024-03-02T06:40:07;28.52;;;21.73;;
1467;SDS011;727;48.892;9.544;2024-03-02T06:42:35;29.05;;;20.45;;
1467;SDS011;727;48.892;9.544;2024-03-02T06:45:01;31.60;;;21.48;;
1467;SDS011;727;48.892;9.544;2024-03-02T06:47:29;29.60;;;20.00;;
1467;SDS011;727;48.892;9.544;2024-03-02T06:49:55;30.55;;;20.70;;
1467;SDS011;727;48.892;9.544;2024-03-02T06:52:24;27.90;;;20.35;;
1467;SDS011;727;48.892;9.544;2024-03-02T06:54:51;37.30;;;21.60;;
1467;SDS011;727;48.892;9.544;2024-03-02T06:57:17;35.88;;;22.52;;
1467;SDS011;727;48.892;9.544;2024-03-02T06:59:45;45.83;;;25.88;;
1467;SDS011;727;48.892;9.544;2024-03-02T07:02:12;35.47;;;24.70;;
1467;SDS011;727;48.892;9.544;2024-03-02T07:04:39;44.40;;;26.65;;
1467;SDS011;727;48.892;9.544;2024-03-02T07:07:05;59.70;;;41.67;;
1467;SDS011;727;48.892;9.544;2024-03-02T07:09:33;44.80;;;31.30;;
1467;SDS011;727;48.892;9.544;2024-03-02T07:12:00;57.58;;;39.38;;
1467;SDS011;727;48.892;9.544;2024-03-02T07:14:27;41.00;;;28.92;;
1467;SDS011;727;48.892;9.544;2024-03-02T07:17:20;42.38;;;29.08;;
1467;SDS011;727;48.892;9.544;2024-03-02T07:19:47;38.72;;;27.67;;
1467;SDS011;727;48.892;9.544;2024-03-02T07:22:13;51.22;;;31.02;;
1467;SDS011;727;48.892;9.544;2024-03-02T07:24:41;35.95;;;25.35;;
1467;SDS011;727;48.892;9.544;2024-03-02T07:27:07;44.38;;;26.33;;
1467;SDS011;727;48.892;9.544;2024-03-02T07:29:34;41.47;;;29.67;;
1467;SDS011;727;48.892;9.544;2024-03-02T07:32:02;50.58;;;33.88;;
1467;SDS011;727;48.892;9.544;2024-03-02T07:34:28;61.58;;;35.55;;
1467;SDS011;727;48.892;9.544;2024-03-02T07:36:55;51.63;;;33.95;;
1467;SDS011;727;48.892;9.544;2024-03-02T07:39:22;57.03;;;38.63;;
1467;SDS011;727;48.892;9.544;2024-03-02T07:41:51;53.40;;;35.60;;
1467;SDS011;727;48.892;9.544;2024-03-02T07:44:18;51.05;;;36.28;;
1467;SDS011;727;48.892;9.544;2024-03-02T07:46:45;53.38;;;34.70;;
1467;SDS011;727;48.892;9.544;2024-03-02T07:49:12;62.47;;;33.58;;
1467;SDS011;727;48.892;9.544;2024-03-02T07:51:39;40.17;;;26.50;;
1467;SDS011;727;48.892;9.544;2024-03-02T07:54:06;30.40;;;22.23;;
1467;SDS011;727;48.892;9.544;2024-03-02T07:56:33;33.75;;;21.25;;
1467;SDS011;727;48.892;9.544;2024-03-02T07:59:01;30.05;;;22.30;;
1467;SDS011;727;48.892;9.544;2024-03-02T08:01:28;27.95;;;20.92;;
1467;SDS011;727;48.892;9.544;2024-03-02T08:03:55;24.38;;;19.60;;
1467;SDS011;727;48.892;9.544;2024-03-02T08:06:23;21.85;;;17.10;;
1467;SDS011;727;48.892;9.544;2024-03-02T08:08:52;25.02;;;18.40;;
1467;SDS011;727;48.892;9.544;2024-03-02T08:11:19;23.00;;;19.20;;
1467;SDS011;727;48.892;9.544;2024-03-02T08:13:46;23.10;;;18.40;;
1467;SDS011;727;48.892;9.544;2024-03-02T08:16:14;24.80;;;17.98;;
1467;SDS011;727;48.892;9.544;2024-03-02T08:18:40;25.80;;;18.52;;
1467;SDS011;727;48.892;9.544;2024-03-02T08:21:07;18.73;;;16.63;;
1467;SDS011;727;48.892;9.544;2024-03-02T08:23:34;19.70;;;13.70;;
1467;SDS011;727;48.892;9.544;2024-03-02T08:26:01;18.42;;;15.82;;
1467;SDS011;727;48.892;9.544;2024-03-02T08:28:28;19.63;;;15.57;;
1467;SDS011;727;48.892;9.544;2024-03-02T08:30:54;26.58;;;15.55;;
1467;SDS011;727;48.892;9.544;2024-03-02T08:33:23;16.80;;;14.18;;
1467;SDS011;727;48.892;9.544;2024-03-02T08:35:49;18.35;;;13.43;;
1467;SDS011;727;48.892;9.544;2024-03-02T08:38:16;20.67;;;15.80;;
1467;SDS011;727;48.892;9.544;2024-03-02T08:40:43;23.15;;;14.98;;
1467;SDS011;727;48.892;9.544;2024-03-02T08:43:10;23.00;;;15.50;;
1467;SDS011;727;48.892;9.544;2024-03-02T08:45:37;15.60;;;13.02;;
1467;SDS011;727;48.892;9.544;2024-03-02T08:48:05;16.58;;;14.30;;
1467;SDS011;727;48.892;9.544;2024-03-02T08:50:34;41.25;;;25.38;;
1467;SDS011;727;48.892;9.544;2024-03-02T08:53:01;23.30;;;15.75;;
1467;SDS011;727;48.892;9.544;2024-03-02T08:55:29;24.20;;;16.73;;
1467;SDS011;727;48.892;9.544;2024-03-02T08:57:56;21.77;;;14.90;;
1467;SDS011;727;48.892;9.544;2024-03-02T09:00:23;20.33;;;16.23;;
1467;SDS011;727;48.892;9.544;2024-03-02T09:02:50;20.77;;;17.38;;
1467;SDS011;727;48.892;9.544;2024-03-02T09:05:17;20.05;;;14.52;;
1467;SDS011;727;48.892;9.544;2024-03-02T09:07:45;19.02;;;13.32;;
1467;SDS011;727;48.892;9.544;2024-03-02T09:10:11;30.48;;;20.55;;
1467;SDS011;727;48.892;9.544;2024-03-02T09:12:38;18.85;;;14.90;;
1467;SDS011;727;48.892;9.544;2024-03-02T09:15:05;20.95;;;17.55;;
1467;SDS011;727;48.892;9.544;2024-03-02T09:17:32;38.05;;;26.20;;
1467;SDS011;727;48.892;9.544;2024-03-02T09:19:59;24.83;;;20.02;;
1467;SDS011;727;48.892;9.544;2024-03-02T09:22:25;21.90;;;16.35;;
1467;SDS011;727;48.892;9.544;2024-03-02T09:24:53;27.98;;;20.73;;
1467;SDS011;727;48.892;9.544;2024-03-02T09:27:20;14.95;;;12.15;;
1467;SDS011;727;48.892;9.544;2024-03-02T09:29:47;16.95;;;13.00;;
1467;SDS011;727;48.892;9.544;2024-03-02T09:32:14;14.55;;;11.95;;
1467;SDS011;727;48.892;9.544;2024-03-02T09:34:40;17.20;;;12.35;;
1467;SDS011;727;48.892;9.544;2024-03-02T09:37:08;14.35;;;12.45;;
1467;SDS011;727;48.892;9.544;2024-03-02T09:39:35;18.02;;;13.93;;
1467;SDS011;727;48.892;9.544;2024-03-02T09:42:03;18.13;;;14.53;;
1467;SDS011;727;48.892;9.544;2024-03-02T09:44:31;15.23;;;12.07;;
1467;SDS011;727;48.892;9.544;2024-03-02T09:46:59;14.20;;;10.83;;
1467;SDS011;727;48.892;9.544;2024-03-02T09:49:25;16.23;;;11.63;;
1467;SDS011;727;48.892;9.544;2024-03-02T09:51:52;13.00;;;11.43;;
1467;SDS011;727;48.892;9.544;2024-03-02T09:54:19;12.33;;;9.27;;
1467;SDS011;727;48.892;9.544;2024-03-02T09:56:46;13.07;;;11.20;;
1467;SDS011;727;48.892;9.544;2024-03-02T09:59:14;11.00;;;8.30;;
1467;SDS011;727;48.892;9.544;2024-03-02T10:01:55;11.47;;;10.27;;
1467;SDS011;727;48.892;9.544;2024-03-02T10:04:23;18.47;;;15.33;;
1467;SDS011;727;48.892;9.544;2024-03-02T10:06:51;8.43;;;7.60;;
1467;SDS011;727;48.892;9.544;2024-03-02T10:09:26;9.13;;;7.77;;
1467;SDS011;727;48.892;9.544;2024-03-02T10:12:01;8.77;;;7.87;;
1467;SDS011;727;48.892;9.544;2024-03-02T10:14:32;5.33;;;4.83;;
1467;SDS011;727;48.892;9.544;2024-03-02T10:17:01;4.83;;;4.33;;
1467;SDS011;727;48.892;9.544;2024-03-02T10:19:28;4.33;;;3.93;;
1467;SDS011;727;48.892;9.544;2024-03-02T10:21:58;7.63;;;5.77;;
1467;SDS011;727;48.892;9.544;2024-03-02T10:24:25;4.60;;;4.20;;
1467;SDS011;727;48.892;9.544;2024-03-02T10:26:52;3.57;;;3.27;;
1467;SDS011;727;48.892;9.544;2024-03-02T10:29:21;5.27;;;4.23;;
1467;SDS011;727;48.892;9.544;2024-03-02T10:31:49;4.97;;;4.47;;
1467;SDS011;727;48.892;9.544;2024-03-02T10:34:16;5.93;;;5.43;;
1467;SDS011;727;48.892;9.544;2024-03-02T10:36:43;6.77;;;6.00;;
1467;SDS011;727;48.892;9.544;2024-03-02T10:39:11;6.13;;;4.83;;
1467;SDS011;727;48.892;9.544;2024-03-02T10:41:39;6.17;;;5.67;;
1467;SDS011;727;48.892;9.544;2024-03-02T10:44:06;7.67;;;5.93;;
1467;SDS011;727;48.892;9.544;2024-03-02T10:46:34;6.53;;;4.43;;
1467;SDS011;727;48.892;9.544;2024-03-02T10:49:04;6.47;;;5.00;;
1467;SDS011;727;48.892;9.544;2024-03-02T10:51:32;6.60;;;5.50;;
1467;SDS011;727;48.892;9.544;2024-03-02T10:54:01;5.43;;;4.93;;
1467;SDS011;727;48.892;9.544;2024-03-02T10:56:29;5.57;;;4.67;;
1467;SDS011;727;48.892;9.544;2024-03-02T10:59:00;5.70;;;5.20;;
1467;SDS011;727;48.892;9.544;2024-03-02T11:01:29;3.43;;;3.13;;
1467;SDS011;727;48.892;9.544;2024-03-02T11:03:57;5.77;;;5.17;;
1467;SDS011;727;48.892;9.544;2024-03-02T11:06:26;4.43;;;4.00;;
1467;SDS011;727;48.892;9.544;2024-03-02T11:08:58;4.20;;;3.10;;
1467;SDS011;727;48.892;9.544;2024-03-02T11:11:32;3.50;;;2.13;;
1467;SDS011;727;48.892;9.544;2024-03-02T11:14:02;2.67;;;2.20;;
1467;SDS011;727;48.892;9.544;2024-03-02T11:16:34;2.77;;;2.20;;
1467;SDS011;727;48.892;9.544;2024-03-02T11:19:03;3.50;;;2.30;;
1467;SDS011;727;48.892;9.544;2024-03-02T11:21:32;2.83;;;2.40;;
1467;SDS011;727;48.892;9.544;2024-03-02T11:24:00;2.23;;;2.10;;
1467;SDS011;727;48.892;9.544;2024-03-02T11:26:42;2.23;;;1.50;;
1467;SDS011;727;48.892;9.544;2024-03-02T11:29:08;1.90;;;1.73;;
1467;SDS011;727;48.892;9.544;2024-03-02T11:31:58;4.73;;;2.17;;
1467;SDS011;727;48.892;9.544;2024-03-02T11:34:28;1.30;;;1.20;;
1467;SDS011;727;48.892;9.544;2024-03-02T11:36:57;4.73;;;4.20;;
1467;SDS011;727;48.892;9.544;2024-03-02T11:39:24;2.20;;;2.00;;
1467;SDS011;727;48.892;9.544;2024-03-02T11:41:51;2.27;;;2.17;;
1467;SDS011;727;48.892;9.544;2024-03-02T11:44:18;1.27;;;1.17;;
1467;SDS011;727;48.892;9.544;2024-03-02T11:46:45;5.73;;;2.90;;
1467;SDS011;727;48.892;9.544;2024-03-02T11:49:13;1.87;;;1.23;;
1467;SDS011;727;48.892;9.544;2024-03-02T11:51:49;1.67;;;1.43;;
1467;SDS011;727;48.892;9.544;2024-03-02T11:54:20;1.30;;;1.20;;
1467;SDS011;727;48.892;9.544;2024-03-02T11:56:47;1.43;;;1.33;;
1467;SDS011;727;48.892;9.544;2024-03-02T11:59:14;1.47;;;1.33;;
1467;SDS011;727;48.892;9.544;2024-03-02T12:01:41;1.60;;;1.50;;
1467;SDS011;727;48.892;9.544;2024-03-02T12:04:08;1.80;;;1.30;;
1467;SDS011;727;48.892;9.544;2024-03-02T12:06:36;3.50;;;2.87;;
1467;SDS011;727;48.892;9.544;2024-03-02T12:09:04;1.40;;;1.30;;
1467;SDS011;727;48.892;9.544;2024-03-02T12:11:32;1.80;;;1.70;;
1467;SDS011;727;48.892;9.544;2024-03-02T12:13:59;1.77;;;1.27;;
1467;SDS011;727;48.892;9.544;2024-03-02T12:16:25;2.13;;;1.57;;
1467;SDS011;727;48.892;9.544;2024-03-02T12:18:52;2.93;;;1.50;;
1467;SDS011;727;48.892;9.544;2024-03-02T12:21:19;3.33;;;3.03;;
1467;SDS011;727;48.892;9.544;2024-03-02T12:23:45;2.30;;;2.10;;
1467;SDS011;727;48.892;9.544;2024-03-02T12:26:12;2.47;;;2.27;;
1467;SDS011;727;48.892;9.544;2024-03-02T12:28:40;1.83;;;1.50;;
1467;SDS011;727;48.892;9.544;2024-03-02T12:31:07;2.60;;;1.27;;
1467;SDS011;727;48.892;9.544;2024-03-02T12:33:34;1.47;;;1.37;;
1467;SDS011;727;48.892;9.544;2024-03-02T12:36:01;1.30;;;1.20;;
1467;SDS011;727;48.892;9.544;2024-03-02T12:38:27;2.10;;;1.50;;
1467;SDS011;727;48.892;9.544;2024-03-02T12:40:54;4.47;;;1.83;;
1467;SDS011;727;48.892;9.544;2024-03-02T12:43:21;1.87;;;0.90;;
1467;SDS011;727;48.892;9.544;2024-03-02T12:45:50;0.80;;;0.80;;
1467;SDS011;727;48.892;9.544;2024-03-02T12:48:17;1.13;;;1.03;;
1467;SDS011;727;48.892;9.544;2024-03-02T12:50:43;2.17;;;1.10;;
1467;SDS011;727;48.892;9.544;2024-03-02T12:53:13;1.00;;;0.87;;
1467;SDS011;727;48.892;9.544;2024-03-02T12:55:41;1.30;;;1.20;;
1467;SDS011;727;48.892;9.544;2024-03-02T12:58:08;1.00;;;0.83;;
1467;SDS011;727;48.892;9.544;2024-03-02T13:00:42;1.67;;;0.90;;
1467;SDS011;727;48.892;9.544;2024-03-02T13:03:10;1.20;;;1.10;;
1467;SDS011;727;48.892;9.544;2024-03-02T13:05:38;1.33;;;1.00;;
1467;SDS011;727;48.892;9.544;2024-03-02T13:08:05;1.80;;;1.20;;
1467;SDS011;727;48.892;9.544;2024-03-02T13:10:33;0.70;;;0.70;;
1467;SDS011;727;48.892;9.544;2024-03-02T13:13:00;2.20;;;2.10;;
1467;SDS011;727;48.892;9.544;2024-03-02T13:15:27;2.60;;;2.40;;
1467;SDS011;727;48.892;9.544;2024-03-02T13:17:53;2.47;;;2.27;;
1467;SDS011;727;48.892;9.544;2024-03-02T13:20:30;1.83;;;1.17;;
1467;SDS011;727;48.892;9.544;2024-03-02T13:22:57;0.90;;;0.70;;
1467;SDS011;727;48.892;9.544;2024-03-02T13:25:24;1.97;;;1.80;;
1467;SDS011;727;48.892;9.544;2024-03-02T13:27:51;2.80;;;1.93;;
1467;SDS011;727;48.892;9.544;2024-03-02T13:30:18;1.53;;;1.43;;
1467;SDS011;727;48.892;9.544;2024-03-02T13:32:45;2.70;;;1.93;;
1467;SDS011;727;48.892;9.544;2024-03-02T13:35:11;0.70;;;0.60;;
1467;SDS011;727;48.892;9.544;2024-03-02T13:37:39;0.70;;;0.70;;
1467;SDS011;727;48.892;9.544;2024-03-02T13:40:06;0.90;;;0.70;;
1467;SDS011;727;48.892;9.544;2024-03-02T13:42:38;3.30;;;2.20;;
1467;SDS011;727;48.892;9.544;2024-03-02T13:45:05;1.40;;;1.10;;
1467;SDS011;727;48.892;9.544;2024-03-02T13:47:32;1.80;;;1.70;;
1467;SDS011;727;48.892;9.544;2024-03-02T13:49:58;0.90;;;0.80;;
1467;SDS011;727;48.892;9.544;2024-03-02T13:52:27;2.60;;;1.00;;
1467;SDS011;727;48.892;9.544;2024-03-02T13:54:56;1.50;;;1.40;;
1467;SDS011;727;48.892;9.544;2024-03-02T13:57:23;1.23;;;1.13;;
1467;SDS011;727;48.892;9.544;2024-03-02T13:59:49;2.43;;;2.33;;
1467;SDS011;727;48.892;9.544;2024-03-02T14:02:17;1.77;;;1.67;;
1467;SDS011;727;48.892;9.544;2024-03-02T14:04:44;1.93;;;1.83;;
1467;SDS011;727;48.892;9.544;2024-03-02T14:07:11;4.53;;;3.40;;
1467;SDS011;727;48.892;9.544;2024-03-02T14:09:37;8.20;;;1.77;;
1467;SDS011;727;48.892;9.544;2024-03-02T14:12:06;1.10;;;0.90;;
1467;SDS011;727;48.892;9.544;2024-03-02T14:14:33;1.20;;;1.00;;
1467;SDS011;727;48.892;9.544;2024-03-02T14:17:00;1.47;;;1.37;;
1467;SDS011;727;48.892;9.544;2024-03-02T14:19:29;2.00;;;1.90;;
1467;SDS011;727;48.892;9.544;2024-03-02T14:21:56;2.27;;;2.07;;
1467;SDS011;727;48.892;9.544;2024-03-02T14:24:22;1.43;;;1.20;;
1467;SDS011;727;48.892;9.544;2024-03-02T14:26:51;6.30;;;5.63;;
1467;SDS011;727;48.892;9.544;2024-03-02T14:29:19;7.43;;;6.70;;
1467;SDS011;727;48.892;9.544;2024-03-02T14:31:45;3.80;;;3.50;;
1467;SDS011;727;48.892;9.544;2024-03-02T14:34:13;3.73;;;2.00;;
1467;SDS011;727;48.892;9.544;2024-03-02T14:36:40;5.17;;;4.67;;
1467;SDS011;727;48.892;9.544;2024-03-02T14:39:08;1.40;;;1.30;;
1467;SDS011;727;48.892;9.544;2024-03-02T14:41:36;2.17;;;1.63;;
1467;SDS011;727;48.892;9.544;2024-03-02T14:44:03;1.30;;;1.00;;
1467;SDS011;727;48.892;9.544;2024-03-02T14:46:31;5.13;;;1.30;;
1467;SDS011;727;48.892;9.544;2024-03-02T14:48:58;1.53;;;1.43;;
1467;SDS011;727;48.892;9.544;2024-03-02T14:51:25;2.23;;;1.83;;
1467;SDS011;727;48.892;9.544;2024-03-02T14:53:51;1.73;;;1.63;;
1467;SDS011;727;48.892;9.544;2024-03-02T14:56:18;1.20;;;1.07;;
1467;SDS011;727;48.892;9.544;2024-03-02T14:58:45;2.20;;;1.37;;
1467;SDS011;727;48.892;9.544;2024-03-02T15:01:11;1.50;;;1.37;;
1467;SDS011;727;48.892;9.544;2024-03-02T15:03:40;2.70;;;1.60;;
1467;SDS011;727;48.892;9.544;2024-03-02T15:06:07;3.03;;;2.07;;
1467;SDS011;727;48.892;9.544;2024-03-02T15:08:34;2.00;;;1.50;;
1467;SDS011;727;48.892;9.544;2024-03-02T15:11:01;1.50;;;1.40;;
1467;SDS011;727;48.892;9.544;2024-03-02T15:13:29;4.60;;;1.80;;